sensor_id;sensor_type;location;lat;lon;timestamp;temperature;humidity
435;DHT22;204;48.942;9.256;2023-06-10T00:01:13;17.10;1.00
435;DHT22;204;48.942;9.256;2023-06-10T00:03:38;17.00;1.00
435;DHT22;204;48.942;9.256;2023-06-10T00:06:04;17.00;1.00
435;DHT22;204;48.942;9.256;2023-06-10T00:08:30;16.90;1.00
435;DHT22;204;48.942;9.256;2023-06-10T00:10:56;16.80;1.00
435;DHT22;204;48.942;9.256;2023-06-10T00:13:22;16.80;1.00
435;DHT22;204;48.942;9.256;2023-06-10T00:15:47;16.70;1.00
435;DHT22;204;48.942;9.256;2023-06-10T00:18:13;16.70;1.00
435;DHT22;204;48.942;9.256;2023-06-10T00:20:39;16.70;1.00
435;DHT22;204;48.942;9.256;2023-06-10T00:23:05;16.60;1.00
435;DHT22;204;48.942;9.256;2023-06-10T00:25:34;16.60;1.00
435;DHT22;204;48.942;9.256;2023-06-10T00:27:59;16.50;1.00
435;DHT22;204;48.942;9.256;2023-06-10T00:30:25;16.50;1.00
435;DHT22;204;48.942;9.256;2023-06-10T00:32:50;16.50;1.00
435;DHT22;204;48.942;9.256;2023-06-10T00:35:16;16.40;1.00
435;DHT22;204;48.942;9.256;2023-06-10T00:37:41;16.40;1.00
435;DHT22;204;48.942;9.256;2023-06-10T00:40:08;16.40;1.00
435;DHT22;204;48.942;9.256;2023-06-10T00:42:36;16.40;1.00
435;DHT22;204;48.942;9.256;2023-06-10T00:45:02;16.40;1.00
435;DHT22;204;48.942;9.256;2023-06-10T00:47:28;16.40;1.00
435;DHT22;204;48.942;9.256;2023-06-10T00:49:54;16.30;1.00
435;DHT22;204;48.942;9.256;2023-06-10T00:52:22;16.20;1.00
435;DHT22;204;48.942;9.256;2023-06-10T00:54:50;16.20;1.00
435;DHT22;204;48.942;9.256;2023-06-10T00:57:15;16.20;1.00
435;DHT22;204;48.942;9.256;2023-06-10T00:59:43;16.20;1.00
435;DHT22;204;48.942;9.256;2023-06-10T01:02:12;16.10;1.00
435;DHT22;204;48.942;9.256;2023-06-10T01:04:38;16.10;1.00
435;DHT22;204;48.942;9.256;2023-06-10T01:07:14;16.10;1.00
435;DHT22;204;48.942;9.256;2023-06-10T01:15:04;15.90;1.00
435;DHT22;204;48.942;9.256;2023-06-10T01:17:30;15.80;1.00
435;DHT22;204;48.942;9.256;2023-06-10T01:19:57;15.80;1.00
435;DHT22;204;48.942;9.256;2023-06-10T01:22:24;15.70;1.00
435;DHT22;204;48.942;9.256;2023-06-10T01:24:58;15.70;1.00
435;DHT22;204;48.942;9.256;2023-06-10T01:27:26;15.70;1.00
435;DHT22;204;48.942;9.256;2023-06-10T01:30:14;15.60;1.00
435;DHT22;204;48.942;9.256;2023-06-10T01:32:48;15.60;1.00
435;DHT22;204;48.942;9.256;2023-06-10T01:35:15;15.60;1.00
435;DHT22;204;48.942;9.256;2023-06-10T01:37:43;15.60;1.00
435;DHT22;204;48.942;9.256;2023-06-10T01:40:11;15.60;1.00
435;DHT22;204;48.942;9.256;2023-06-10T01:42:37;15.60;1.00
435;DHT22;204;48.942;9.256;2023-06-10T01:45:03;15.50;1.00
435;DHT22;204;48.942;9.256;2023-06-10T01:47:29;15.50;1.00
435;DHT22;204;48.942;9.256;2023-06-10T01:49:54;15.50;1.00
435;DHT22;204;48.942;9.256;2023-06-10T01:52:20;15.50;1.00
435;DHT22;204;48.942;9.256;2023-06-10T01:54:46;15.40;1.00
435;DHT22;204;48.942;9.256;2023-06-10T01:57:11;15.40;1.00
435;DHT22;204;48.942;9.256;2023-06-10T01:59:37;15.40;1.00
435;DHT22;204;48.942;9.256;2023-06-10T02:02:04;15.40;1.00
435;DHT22;204;48.942;9.256;2023-06-10T02:04:29;15.30;1.00
435;DHT22;204;48.942;9.256;2023-06-10T02:06:55;15.30;1.00
435;DHT22;204;48.942;9.256;2023-06-10T02:09:21;15.20;1.00
435;DHT22;204;48.942;9.256;2023-06-10T02:11:48;15.20;1.00
435;DHT22;204;48.942;9.256;2023-06-10T02:14:14;15.20;1.00
435;DHT22;204;48.942;9.256;2023-06-10T02:16:39;15.10;1.00
435;DHT22;204;48.942;9.256;2023-06-10T02:19:05;15.10;1.00
435;DHT22;204;48.942;9.256;2023-06-10T02:21:32;15.10;1.00
435;DHT22;204;48.942;9.256;2023-06-10T02:23:59;15.10;1.00
435;DHT22;204;48.942;9.256;2023-06-10T02:26:25;15.00;1.00
435;DHT22;204;48.942;9.256;2023-06-10T02:28:51;15.00;1.00
435;DHT22;204;48.942;9.256;2023-06-10T02:31:17;15.00;1.00
435;DHT22;204;48.942;9.256;2023-06-10T02:33:44;15.00;1.00
435;DHT22;204;48.942;9.256;2023-06-10T02:36:10;14.90;1.00
435;DHT22;204;48.942;9.256;2023-06-10T02:38:39;14.90;1.00
435;DHT22;204;48.942;9.256;2023-06-10T02:41:05;14.90;1.00
435;DHT22;204;48.942;9.256;2023-06-10T02:43:31;14.90;1.00
435;DHT22;204;48.942;9.256;2023-06-10T02:45:57;14.90;1.00
435;DHT22;204;48.942;9.256;2023-06-10T02:48:24;14.90;1.00
435;DHT22;204;48.942;9.256;2023-06-10T02:50:50;14.80;1.00
435;DHT22;204;48.942;9.256;2023-06-10T02:53:16;14.80;1.00
435;DHT22;204;48.942;9.256;2023-06-10T02:55:42;14.80;1.00
435;DHT22;204;48.942;9.256;2023-06-10T02:58:08;14.80;1.00
435;DHT22;204;48.942;9.256;2023-06-10T03:00:33;14.80;1.00
435;DHT22;204;48.942;9.256;2023-06-10T03:02:59;14.80;1.00
435;DHT22;204;48.942;9.256;2023-06-10T03:05:30;14.70;1.00
435;DHT22;204;48.942;9.256;2023-06-10T03:07:55;14.70;1.00
435;DHT22;204;48.942;9.256;2023-06-10T03:10:21;14.70;1.00
435;DHT22;204;48.942;9.256;2023-06-10T03:12:46;14.70;1.00
435;DHT22;204;48.942;9.256;2023-06-10T03:15:12;14.70;1.00
435;DHT22;204;48.942;9.256;2023-06-10T03:17:38;14.70;1.00
435;DHT22;204;48.942;9.256;2023-06-10T03:20:04;14.60;1.00
435;DHT22;204;48.942;9.256;2023-06-10T03:22:31;14.60;1.00
435;DHT22;204;48.942;9.256;2023-06-10T03:24:56;14.60;1.00
435;DHT22;204;48.942;9.256;2023-06-10T03:27:22;14.60;1.00
435;DHT22;204;48.942;9.256;2023-06-10T03:29:48;14.60;1.00
435;DHT22;204;48.942;9.256;2023-06-10T03:32:13;14.60;1.00
435;DHT22;204;48.942;9.256;2023-06-10T03:34:40;14.60;1.00
435;DHT22;204;48.942;9.256;2023-06-10T03:37:06;14.60;1.00
435;DHT22;204;48.942;9.256;2023-06-10T03:39:32;14.70;1.00
435;DHT22;204;48.942;9.256;2023-06-10T03:41:57;14.70;1.00
435;DHT22;204;48.942;9.256;2023-06-10T03:44:24;14.70;1.00
435;DHT22;204;48.942;9.256;2023-06-10T03:46:51;14.80;1.00
435;DHT22;204;48.942;9.256;2023-06-10T03:49:17;14.80;1.00
435;DHT22;204;48.942;9.256;2023-06-10T03:51:43;14.80;1.00
435;DHT22;204;48.942;9.256;2023-06-10T03:54:08;14.90;1.00
435;DHT22;204;48.942;9.256;2023-06-10T03:56:35;14.90;1.00
435;DHT22;204;48.942;9.256;2023-06-10T03:59:00;15.10;1.00
435;DHT22;204;48.942;9.256;2023-06-10T04:01:26;15.50;1.00
435;DHT22;204;48.942;9.256;2023-06-10T04:03:54;16.10;1.00
435;DHT22;204;48.942;9.256;2023-06-10T04:06:20;16.70;1.00
435;DHT22;204;48.942;9.256;2023-06-10T04:08:48;17.30;1.00
435;DHT22;204;48.942;9.256;2023-06-10T04:11:13;17.80;1.00
435;DHT22;204;48.942;9.256;2023-06-10T04:13:39;18.30;1.00
435;DHT22;204;48.942;9.256;2023-06-10T04:16:08;18.70;1.00
435;DHT22;204;48.942;9.256;2023-06-10T04:18:33;19.00;1.00
435;DHT22;204;48.942;9.256;2023-06-10T04:20:59;19.20;1.00
435;DHT22;204;48.942;9.256;2023-06-10T04:23:24;19.50;1.00
435;DHT22;204;48.942;9.256;2023-06-10T04:25:51;19.80;1.00
435;DHT22;204;48.942;9.256;2023-06-10T04:28:17;20.20;1.00
435;DHT22;204;48.942;9.256;2023-06-10T04:30:42;20.40;1.00
435;DHT22;204;48.942;9.256;2023-06-10T04:33:08;20.60;1.00
435;DHT22;204;48.942;9.256;2023-06-10T04:35:34;20.80;1.00
435;DHT22;204;48.942;9.256;2023-06-10T04:38:00;21.00;1.00
435;DHT22;204;48.942;9.256;2023-06-10T04:40:28;21.10;1.00
435;DHT22;204;48.942;9.256;2023-06-10T04:42:53;21.30;1.00
435;DHT22;204;48.942;9.256;2023-06-10T04:45:19;21.40;1.00
435;DHT22;204;48.942;9.256;2023-06-10T04:47:44;21.50;1.00
435;DHT22;204;48.942;9.256;2023-06-10T04:50:10;21.60;1.00
435;DHT22;204;48.942;9.256;2023-06-10T04:52:35;21.80;1.00
435;DHT22;204;48.942;9.256;2023-06-10T04:55:01;21.90;99.90
435;DHT22;204;48.942;9.256;2023-06-10T04:57:27;22.00;99.90
435;DHT22;204;48.942;9.256;2023-06-10T04:59:53;22.10;99.90
435;DHT22;204;48.942;9.256;2023-06-10T05:02:19;22.10;99.90
435;DHT22;204;48.942;9.256;2023-06-10T05:04:44;22.10;99.90
435;DHT22;204;48.942;9.256;2023-06-10T05:07:10;22.20;99.90
435;DHT22;204;48.942;9.256;2023-06-10T05:09:35;22.30;99.90
435;DHT22;204;48.942;9.256;2023-06-10T05:12:01;22.30;99.90
435;DHT22;204;48.942;9.256;2023-06-10T05:14:28;22.40;99.90
435;DHT22;204;48.942;9.256;2023-06-10T05:16:53;22.40;99.90
435;DHT22;204;48.942;9.256;2023-06-10T05:19:19;22.40;99.90
435;DHT22;204;48.942;9.256;2023-06-10T05:21:45;22.40;99.90
435;DHT22;204;48.942;9.256;2023-06-10T05:24:11;22.40;99.90
435;DHT22;204;48.942;9.256;2023-06-10T05:26:37;22.40;99.90
435;DHT22;204;48.942;9.256;2023-06-10T05:29:06;22.40;99.90
435;DHT22;204;48.942;9.256;2023-06-10T05:31:32;22.40;99.90
435;DHT22;204;48.942;9.256;2023-06-10T05:33:58;22.50;99.90
435;DHT22;204;48.942;9.256;2023-06-10T05:36:23;22.50;99.90
435;DHT22;204;48.942;9.256;2023-06-10T05:38:50;22.60;99.90
435;DHT22;204;48.942;9.256;2023-06-10T05:41:16;22.60;99.90
435;DHT22;204;48.942;9.256;2023-06-10T05:43:42;22.60;99.90
435;DHT22;204;48.942;9.256;2023-06-10T05:46:07;22.70;99.90
435;DHT22;204;48.942;9.256;2023-06-10T05:48:33;22.70;99.90
435;DHT22;204;48.942;9.256;2023-06-10T05:50:58;22.90;99.90
435;DHT22;204;48.942;9.256;2023-06-10T05:53:24;23.10;99.90
435;DHT22;204;48.942;9.256;2023-06-10T05:55:50;23.20;99.90
435;DHT22;204;48.942;9.256;2023-06-10T05:58:16;23.40;99.90
435;DHT22;204;48.942;9.256;2023-06-10T06:00:42;23.60;99.90
435;DHT22;204;48.942;9.256;2023-06-10T06:03:07;23.60;99.90
435;DHT22;204;48.942;9.256;2023-06-10T06:05:36;23.70;99.90
435;DHT22;204;48.942;9.256;2023-06-10T06:08:09;23.90;99.90
435;DHT22;204;48.942;9.256;2023-06-10T06:10:35;24.00;99.90
435;DHT22;204;48.942;9.256;2023-06-10T06:13:01;24.10;99.90
435;DHT22;204;48.942;9.256;2023-06-10T06:15:26;24.30;99.90
435;DHT22;204;48.942;9.256;2023-06-10T06:17:52;24.40;99.90
435;DHT22;204;48.942;9.256;2023-06-10T06:20:19;24.50;99.90
435;DHT22;204;48.942;9.256;2023-06-10T06:22:45;24.70;99.90
435;DHT22;204;48.942;9.256;2023-06-10T06:25:10;24.70;99.90
435;DHT22;204;48.942;9.256;2023-06-10T06:27:36;24.60;99.90
435;DHT22;204;48.942;9.256;2023-06-10T06:30:01;24.70;99.90
435;DHT22;204;48.942;9.256;2023-06-10T06:32:27;24.70;99.90
435;DHT22;204;48.942;9.256;2023-06-10T06:34:53;24.80;99.90
435;DHT22;204;48.942;9.256;2023-06-10T06:37:23;24.80;99.90
435;DHT22;204;48.942;9.256;2023-06-10T06:39:53;24.90;99.90
435;DHT22;204;48.942;9.256;2023-06-10T06:42:19;24.90;99.90
435;DHT22;204;48.942;9.256;2023-06-10T06:44:46;25.00;99.90
435;DHT22;204;48.942;9.256;2023-06-10T06:47:12;24.90;99.90
435;DHT22;204;48.942;9.256;2023-06-10T06:49:38;24.80;99.90
435;DHT22;204;48.942;9.256;2023-06-10T06:52:03;24.70;99.90
435;DHT22;204;48.942;9.256;2023-06-10T06:54:30;24.80;99.90
435;DHT22;204;48.942;9.256;2023-06-10T06:56:56;24.80;99.90
435;DHT22;204;48.942;9.256;2023-06-10T06:59:21;24.90;99.90
435;DHT22;204;48.942;9.256;2023-06-10T07:01:47;25.00;99.90
435;DHT22;204;48.942;9.256;2023-06-10T07:04:15;25.20;99.90
435;DHT22;204;48.942;9.256;2023-06-10T07:06:40;25.20;99.90
435;DHT22;204;48.942;9.256;2023-06-10T07:09:07;25.40;99.90
435;DHT22;204;48.942;9.256;2023-06-10T07:11:34;25.40;99.90
435;DHT22;204;48.942;9.256;2023-06-10T07:13:59;25.50;99.90
435;DHT22;204;48.942;9.256;2023-06-10T07:16:25;25.60;99.90
435;DHT22;204;48.942;9.256;2023-06-10T07:18:52;25.70;99.90
435;DHT22;204;48.942;9.256;2023-06-10T07:21:17;25.80;99.90
435;DHT22;204;48.942;9.256;2023-06-10T07:23:43;25.90;99.90
435;DHT22;204;48.942;9.256;2023-06-10T07:26:10;25.90;99.90
435;DHT22;204;48.942;9.256;2023-06-10T07:28:37;26.10;99.90
435;DHT22;204;48.942;9.256;2023-06-10T07:31:03;26.20;99.90
435;DHT22;204;48.942;9.256;2023-06-10T07:33:28;26.40;99.90
435;DHT22;204;48.942;9.256;2023-06-10T07:35:54;26.50;99.90
435;DHT22;204;48.942;9.256;2023-06-10T07:38:20;26.50;99.90
435;DHT22;204;48.942;9.256;2023-06-10T07:40:45;26.60;99.90
435;DHT22;204;48.942;9.256;2023-06-10T07:43:11;26.70;99.90
435;DHT22;204;48.942;9.256;2023-06-10T07:45:36;26.80;99.90
435;DHT22;204;48.942;9.256;2023-06-10T07:48:04;26.80;99.90
435;DHT22;204;48.942;9.256;2023-06-10T07:50:30;26.70;99.90
435;DHT22;204;48.942;9.256;2023-06-10T07:52:55;26.60;99.90
435;DHT22;204;48.942;9.256;2023-06-10T07:55:21;26.50;99.90
435;DHT22;204;48.942;9.256;2023-06-10T07:57:46;26.40;99.90
435;DHT22;204;48.942;9.256;2023-06-10T08:00:12;26.40;99.90
435;DHT22;204;48.942;9.256;2023-06-10T08:02:38;26.50;99.90
435;DHT22;204;48.942;9.256;2023-06-10T08:05:04;26.50;99.90
435;DHT22;204;48.942;9.256;2023-06-10T08:07:30;26.50;99.90
435;DHT22;204;48.942;9.256;2023-06-10T08:09:56;26.40;99.90
435;DHT22;204;48.942;9.256;2023-06-10T08:12:21;26.40;99.90
435;DHT22;204;48.942;9.256;2023-06-10T08:14:47;26.30;99.90
435;DHT22;204;48.942;9.256;2023-06-10T08:17:13;26.40;99.90
435;DHT22;204;48.942;9.256;2023-06-10T08:19:38;26.50;99.90
435;DHT22;204;48.942;9.256;2023-06-10T08:22:04;26.60;99.90
435;DHT22;204;48.942;9.256;2023-06-10T08:24:29;26.70;99.90
435;DHT22;204;48.942;9.256;2023-06-10T08:26:55;26.70;99.90
435;DHT22;204;48.942;9.256;2023-06-10T08:29:22;26.70;99.90
435;DHT22;204;48.942;9.256;2023-06-10T08:31:48;26.70;99.90
435;DHT22;204;48.942;9.256;2023-06-10T08:34:14;26.80;99.90
435;DHT22;204;48.942;9.256;2023-06-10T08:36:39;26.90;99.90
435;DHT22;204;48.942;9.256;2023-06-10T08:39:05;27.00;99.90
435;DHT22;204;48.942;9.256;2023-06-10T08:41:39;27.10;99.90
435;DHT22;204;48.942;9.256;2023-06-10T08:44:27;27.10;99.90
435;DHT22;204;48.942;9.256;2023-06-10T08:46:53;27.10;99.90
435;DHT22;204;48.942;9.256;2023-06-10T08:49:23;27.20;99.90
435;DHT22;204;48.942;9.256;2023-06-10T08:51:56;27.30;99.90
435;DHT22;204;48.942;9.256;2023-06-10T08:54:27;27.50;99.90
435;DHT22;204;48.942;9.256;2023-06-10T08:56:55;27.50;99.90
435;DHT22;204;48.942;9.256;2023-06-10T08:59:21;27.50;99.90
435;DHT22;204;48.942;9.256;2023-06-10T09:01:47;27.30;99.90
435;DHT22;204;48.942;9.256;2023-06-10T09:04:13;27.20;99.90
435;DHT22;204;48.942;9.256;2023-06-10T09:06:40;27.20;99.90
435;DHT22;204;48.942;9.256;2023-06-10T09:09:06;27.20;99.90
435;DHT22;204;48.942;9.256;2023-06-10T09:11:33;27.20;99.90
435;DHT22;204;48.942;9.256;2023-06-10T09:13:58;27.10;99.90
435;DHT22;204;48.942;9.256;2023-06-10T09:16:27;27.20;99.90
435;DHT22;204;48.942;9.256;2023-06-10T09:18:53;27.30;99.90
435;DHT22;204;48.942;9.256;2023-06-10T09:21:24;27.40;99.90
435;DHT22;204;48.942;9.256;2023-06-10T09:23:50;27.40;99.90
435;DHT22;204;48.942;9.256;2023-06-10T09:26:17;27.50;99.90
435;DHT22;204;48.942;9.256;2023-06-10T09:28:48;27.70;99.90
435;DHT22;204;48.942;9.256;2023-06-10T09:31:13;27.80;99.90
435;DHT22;204;48.942;9.256;2023-06-10T09:33:44;27.90;99.90
435;DHT22;204;48.942;9.256;2023-06-10T09:36:09;27.80;99.90
435;DHT22;204;48.942;9.256;2023-06-10T09:38:35;27.90;99.90
435;DHT22;204;48.942;9.256;2023-06-10T09:41:01;27.80;99.90
435;DHT22;204;48.942;9.256;2023-06-10T09:43:42;27.90;99.90
435;DHT22;204;48.942;9.256;2023-06-10T09:46:18;27.80;99.90
435;DHT22;204;48.942;9.256;2023-06-10T09:48:45;27.90;99.90
435;DHT22;204;48.942;9.256;2023-06-10T09:51:12;28.00;99.90
435;DHT22;204;48.942;9.256;2023-06-10T09:53:38;28.00;99.90
435;DHT22;204;48.942;9.256;2023-06-10T09:56:04;28.00;99.90
435;DHT22;204;48.942;9.256;2023-06-10T09:58:39;28.00;99.90
435;DHT22;204;48.942;9.256;2023-06-10T10:01:09;28.10;99.90
435;DHT22;204;48.942;9.256;2023-06-10T10:03:45;28.30;99.90
435;DHT22;204;48.942;9.256;2023-06-10T10:06:12;28.60;99.90
435;DHT22;204;48.942;9.256;2023-06-10T10:08:39;28.60;99.90
435;DHT22;204;48.942;9.256;2023-06-10T10:11:04;28.70;99.90
435;DHT22;204;48.942;9.256;2023-06-10T10:13:35;28.90;99.90
435;DHT22;204;48.942;9.256;2023-06-10T10:16:06;29.10;99.90
435;DHT22;204;48.942;9.256;2023-06-10T10:18:35;29.10;99.90
435;DHT22;204;48.942;9.256;2023-06-10T10:21:08;29.30;99.90
435;DHT22;204;48.942;9.256;2023-06-10T10:24:03;29.60;99.90
435;DHT22;204;48.942;9.256;2023-06-10T10:26:32;29.80;99.90
435;DHT22;204;48.942;9.256;2023-06-10T10:31:29;30.30;99.90
435;DHT22;204;48.942;9.256;2023-06-10T10:33:59;30.40;99.90
435;DHT22;204;48.942;9.256;2023-06-10T10:36:25;30.60;99.90
435;DHT22;204;48.942;9.256;2023-06-10T10:38:51;30.70;99.90
435;DHT22;204;48.942;9.256;2023-06-10T10:41:18;30.90;99.90
435;DHT22;204;48.942;9.256;2023-06-10T10:43:44;31.10;99.90
435;DHT22;204;48.942;9.256;2023-06-10T10:46:13;31.20;99.90
435;DHT22;204;48.942;9.256;2023-06-10T10:48:40;31.30;99.90
435;DHT22;204;48.942;9.256;2023-06-10T10:51:09;31.40;99.90
435;DHT22;204;48.942;9.256;2023-06-10T10:53:37;31.60;99.90
435;DHT22;204;48.942;9.256;2023-06-10T10:56:15;31.90;99.90
435;DHT22;204;48.942;9.256;2023-06-10T10:59:04;31.80;99.90
435;DHT22;204;48.942;9.256;2023-06-10T11:01:43;31.60;99.90
435;DHT22;204;48.942;9.256;2023-06-10T11:04:12;31.50;99.90
435;DHT22;204;48.942;9.256;2023-06-10T11:06:37;31.30;99.90
435;DHT22;204;48.942;9.256;2023-06-10T11:09:25;31.00;99.90
435;DHT22;204;48.942;9.256;2023-06-10T11:11:52;30.80;99.90
435;DHT22;204;48.942;9.256;2023-06-10T11:14:27;30.50;99.90
435;DHT22;204;48.942;9.256;2023-06-10T11:16:58;30.20;99.90
435;DHT22;204;48.942;9.256;2023-06-10T11:19:37;30.10;99.90
435;DHT22;204;48.942;9.256;2023-06-10T11:22:06;30.20;99.90
435;DHT22;204;48.942;9.256;2023-06-10T11:24:33;30.30;99.90
435;DHT22;204;48.942;9.256;2023-06-10T11:32:33;30.20;99.90
435;DHT22;204;48.942;9.256;2023-06-10T11:35:02;30.20;99.90
435;DHT22;204;48.942;9.256;2023-06-10T11:37:28;30.20;99.90
435;DHT22;204;48.942;9.256;2023-06-10T11:39:55;30.30;99.90
435;DHT22;204;48.942;9.256;2023-06-10T11:42:22;30.50;99.90
435;DHT22;204;48.942;9.256;2023-06-10T11:44:52;30.50;99.90
435;DHT22;204;48.942;9.256;2023-06-10T11:47:18;30.60;99.90
435;DHT22;204;48.942;9.256;2023-06-10T11:49:45;30.50;99.90
435;DHT22;204;48.942;9.256;2023-06-10T11:52:11;30.70;99.90
435;DHT22;204;48.942;9.256;2023-06-10T11:54:37;30.80;99.90
435;DHT22;204;48.942;9.256;2023-06-10T11:57:03;30.60;99.90
435;DHT22;204;48.942;9.256;2023-06-10T11:59:29;30.50;99.90
435;DHT22;204;48.942;9.256;2023-06-10T12:01:56;30.00;99.90
435;DHT22;204;48.942;9.256;2023-06-10T12:04:22;29.80;99.90
435;DHT22;204;48.942;9.256;2023-06-10T12:06:49;29.70;99.90
435;DHT22;204;48.942;9.256;2023-06-10T12:09:26;29.60;99.90
435;DHT22;204;48.942;9.256;2023-06-10T12:11:55;29.60;99.90
435;DHT22;204;48.942;9.256;2023-06-10T12:14:56;29.70;99.90
435;DHT22;204;48.942;9.256;2023-06-10T12:20:03;30.20;99.90
435;DHT22;204;48.942;9.256;2023-06-10T12:22:41;30.40;99.90
435;DHT22;204;48.942;9.256;2023-06-10T12:25:07;30.50;99.90
435;DHT22;204;48.942;9.256;2023-06-10T12:27:34;30.60;99.90
435;DHT22;204;48.942;9.256;2023-06-10T12:30:02;30.60;99.90
435;DHT22;204;48.942;9.256;2023-06-10T12:35:05;30.60;99.90
435;DHT22;204;48.942;9.256;2023-06-10T12:37:31;30.80;99.90
435;DHT22;204;48.942;9.256;2023-06-10T12:40:03;30.90;99.90
435;DHT22;204;48.942;9.256;2023-06-10T12:42:31;30.80;99.90
435;DHT22;204;48.942;9.256;2023-06-10T12:44:58;30.90;99.90
435;DHT22;204;48.942;9.256;2023-06-10T12:47:37;31.10;99.90
435;DHT22;204;48.942;9.256;2023-06-10T12:50:07;31.30;99.90
435;DHT22;204;48.942;9.256;2023-06-10T12:52:33;31.40;99.90
435;DHT22;204;48.942;9.256;2023-06-10T12:54:58;31.50;99.90
435;DHT22;204;48.942;9.256;2023-06-10T12:57:25;31.50;99.90
435;DHT22;204;48.942;9.256;2023-06-10T12:59:51;31.60;99.90
435;DHT22;204;48.942;9.256;2023-06-10T13:02:22;31.40;99.90
435;DHT22;204;48.942;9.256;2023-06-10T13:04:49;31.30;99.90
435;DHT22;204;48.942;9.256;2023-06-10T13:07:15;31.20;99.90
435;DHT22;204;48.942;9.256;2023-06-10T13:09:41;31.10;99.90
435;DHT22;204;48.942;9.256;2023-06-10T13:12:07;31.10;99.90
435;DHT22;204;48.942;9.256;2023-06-10T13:14:33;31.20;99.90
435;DHT22;204;48.942;9.256;2023-06-10T13:16:59;31.30;99.90
435;DHT22;204;48.942;9.256;2023-06-10T13:19:24;31.30;99.90
435;DHT22;204;48.942;9.256;2023-06-10T13:21:51;31.30;99.90
435;DHT22;204;48.942;9.256;2023-06-10T13:24:17;31.00;99.90
435;DHT22;204;48.942;9.256;2023-06-10T13:26:42;30.60;99.90
435;DHT22;204;48.942;9.256;2023-06-10T13:29:08;30.20;99.90
435;DHT22;204;48.942;9.256;2023-06-10T13:31:39;29.90;99.90
435;DHT22;204;48.942;9.256;2023-06-10T13:34:05;29.80;99.90
435;DHT22;204;48.942;9.256;2023-06-10T13:36:31;30.00;99.90
435;DHT22;204;48.942;9.256;2023-06-10T13:38:56;30.40;99.90
435;DHT22;204;48.942;9.256;2023-06-10T13:41:22;30.70;99.90
435;DHT22;204;48.942;9.256;2023-06-10T13:43:48;30.80;99.90
435;DHT22;204;48.942;9.256;2023-06-10T13:46:13;31.00;99.90
435;DHT22;204;48.942;9.256;2023-06-10T13:48:39;31.00;99.90
435;DHT22;204;48.942;9.256;2023-06-10T13:51:05;30.90;99.90
435;DHT22;204;48.942;9.256;2023-06-10T13:53:31;30.70;99.90
435;DHT22;204;48.942;9.256;2023-06-10T13:55:57;30.60;99.90
435;DHT22;204;48.942;9.256;2023-06-10T13:58:22;30.40;99.90
435;DHT22;204;48.942;9.256;2023-06-10T14:00:48;30.30;99.90
435;DHT22;204;48.942;9.256;2023-06-10T14:03:14;30.10;99.90
435;DHT22;204;48.942;9.256;2023-06-10T14:05:39;30.10;99.90
435;DHT22;204;48.942;9.256;2023-06-10T14:08:05;30.00;99.90
435;DHT22;204;48.942;9.256;2023-06-10T14:10:31;29.90;99.90
435;DHT22;204;48.942;9.256;2023-06-10T14:12:57;29.70;99.90
435;DHT22;204;48.942;9.256;2023-06-10T14:15:22;29.70;99.90
435;DHT22;204;48.942;9.256;2023-06-10T14:17:48;29.80;99.90
435;DHT22;204;48.942;9.256;2023-06-10T14:20:13;29.90;99.90
435;DHT22;204;48.942;9.256;2023-06-10T14:22:39;29.90;99.90
435;DHT22;204;48.942;9.256;2023-06-10T14:25:06;30.00;99.90
435;DHT22;204;48.942;9.256;2023-06-10T14:27:31;30.10;99.90
435;DHT22;204;48.942;9.256;2023-06-10T14:29:57;30.10;99.90
435;DHT22;204;48.942;9.256;2023-06-10T14:32:22;30.30;99.90
435;DHT22;204;48.942;9.256;2023-06-10T14:34:48;30.40;99.90
435;DHT22;204;48.942;9.256;2023-06-10T14:37:13;30.60;99.90
435;DHT22;204;48.942;9.256;2023-06-10T14:39:39;30.60;99.90
435;DHT22;204;48.942;9.256;2023-06-10T14:42:05;30.50;99.90
435;DHT22;204;48.942;9.256;2023-06-10T14:44:31;30.40;99.90
435;DHT22;204;48.942;9.256;2023-06-10T14:46:57;30.40;99.90
435;DHT22;204;48.942;9.256;2023-06-10T14:49:22;30.20;99.90
435;DHT22;204;48.942;9.256;2023-06-10T14:51:48;30.20;99.90
435;DHT22;204;48.942;9.256;2023-06-10T14:54:15;30.30;99.90
435;DHT22;204;48.942;9.256;2023-06-10T14:56:41;30.50;99.90
435;DHT22;204;48.942;9.256;2023-06-10T14:59:06;30.60;99.90
435;DHT22;204;48.942;9.256;2023-06-10T15:01:32;30.50;99.90
435;DHT22;204;48.942;9.256;2023-06-10T15:03:57;30.40;99.90
435;DHT22;204;48.942;9.256;2023-06-10T15:06:23;30.30;99.90
435;DHT22;204;48.942;9.256;2023-06-10T15:08:48;30.10;99.90
435;DHT22;204;48.942;9.256;2023-06-10T15:11:17;29.80;99.90
435;DHT22;204;48.942;9.256;2023-06-10T15:13:42;29.50;99.90
435;DHT22;204;48.942;9.256;2023-06-10T15:16:08;29.50;99.90
435;DHT22;204;48.942;9.256;2023-06-10T15:18:34;29.50;99.90
435;DHT22;204;48.942;9.256;2023-06-10T15:20:59;29.50;99.90
435;DHT22;204;48.942;9.256;2023-06-10T15:23:25;29.50;99.90
435;DHT22;204;48.942;9.256;2023-06-10T15:25:51;29.60;99.90
435;DHT22;204;48.942;9.256;2023-06-10T15:28:16;29.60;99.90
435;DHT22;204;48.942;9.256;2023-06-10T15:30:42;29.60;99.90
435;DHT22;204;48.942;9.256;2023-06-10T15:33:07;29.60;99.90
435;DHT22;204;48.942;9.256;2023-06-10T15:35:33;29.50;99.90
435;DHT22;204;48.942;9.256;2023-06-10T15:37:59;29.50;99.90
435;DHT22;204;48.942;9.256;2023-06-10T15:40:24;29.50;99.90
435;DHT22;204;48.942;9.256;2023-06-10T15:42:51;29.40;99.90
435;DHT22;204;48.942;9.256;2023-06-10T15:45:16;29.40;99.90
435;DHT22;204;48.942;9.256;2023-06-10T15:47:42;29.30;99.90
435;DHT22;204;48.942;9.256;2023-06-10T15:50:08;29.30;99.90
435;DHT22;204;48.942;9.256;2023-06-10T15:52:34;29.30;99.90
435;DHT22;204;48.942;9.256;2023-06-10T15:54:59;29.30;99.90
435;DHT22;204;48.942;9.256;2023-06-10T15:57:25;29.40;99.90
435;DHT22;204;48.942;9.256;2023-06-10T15:59:51;29.40;99.90
435;DHT22;204;48.942;9.256;2023-06-10T16:02:16;29.40;99.90
435;DHT22;204;48.942;9.256;2023-06-10T16:04:42;29.40;99.90
435;DHT22;204;48.942;9.256;2023-06-10T16:07:07;29.40;99.90
435;DHT22;204;48.942;9.256;2023-06-10T16:09:33;29.30;99.90
435;DHT22;204;48.942;9.256;2023-06-10T16:11:59;29.30;99.90
435;DHT22;204;48.942;9.256;2023-06-10T16:14:25;29.20;99.90
435;DHT22;204;48.942;9.256;2023-06-10T16:16:50;29.20;99.90
435;DHT22;204;48.942;9.256;2023-06-10T16:19:16;29.00;99.90
435;DHT22;204;48.942;9.256;2023-06-10T16:21:41;28.90;99.90
435;DHT22;204;48.942;9.256;2023-06-10T16:24:08;28.90;99.90
435;DHT22;204;48.942;9.256;2023-06-10T16:26:34;28.90;99.90
435;DHT22;204;48.942;9.256;2023-06-10T16:29:01;28.80;99.90
435;DHT22;204;48.942;9.256;2023-06-10T16:31:26;28.70;99.90
435;DHT22;204;48.942;9.256;2023-06-10T16:33:52;28.80;99.90
435;DHT22;204;48.942;9.256;2023-06-10T16:36:17;28.80;99.90
435;DHT22;204;48.942;9.256;2023-06-10T16:38:43;28.80;99.90
435;DHT22;204;48.942;9.256;2023-06-10T16:41:08;28.80;99.90
435;DHT22;204;48.942;9.256;2023-06-10T16:43:34;28.80;99.90
435;DHT22;204;48.942;9.256;2023-06-10T16:46:00;28.80;99.90
435;DHT22;204;48.942;9.256;2023-06-10T16:48:25;28.70;99.90
435;DHT22;204;48.942;9.256;2023-06-10T16:50:51;28.70;99.90
435;DHT22;204;48.942;9.256;2023-06-10T16:53:17;28.60;99.90
435;DHT22;204;48.942;9.256;2023-06-10T16:55:42;28.60;99.90